Ana Sayfa
METAR-TAF:

METAR-TAF

Havaalanları :

Balıkesir Koca Seyit Havalimanı

Edremit, Türkiye

Enlem: 39-33-16N, Boylam: 27-00-49E, yükseklik: 15 m

Güncel hava durumu gözlemi

Rapor saat 19:50 UTC de 1 saat ve 13 dakika önce yapıldı.
Rüzgar doğudan 15 kt
Sıcaklık 12°C
Nem 58%
Basınç 1022 hPa
Görüş mesafesi 10 km veya daha fazla
3500 ft yükseklikte parçalı bulutlu
10000 ft yükseklikte parçalı çok bulutlu

METAR: LTFD 171950Z 09015KT 9999 SCT035 BKN100 12/04 Q1022

Saat: 00:03 (21:03 UTC)

Tahmin

Rapor saat 19:40 UTC de 1 saat ve 23 dakika önce yapıldı.
Ayın 17'si saat 21 UTC'den ayın 18'si saat 06 UTC'ye kadar geçerli Tahmin
Rüzgar doğudan 12 kt
Görüş mesafesi 10 km veya daha fazla
3500 ft yükseklikte parçalı bulutlu
10000 ft yükseklikte parçalı çok bulutlu
Geçici
ayın 17'si saat 21 UTC'den ayın 17'si saat 23 UTC'ye kadar
hafif sağanak yağmurlar

TAF: LTFD 171940Z 1721/1806 08012KT 9999 SCT035 BKN100 TEMPO 1721/1723 -SHRA

4.000'den fazla havaalanı için hava durumu gözlemleri ve tahminleri (METAR ve TAF raporları).

Kullanılabilir istasyonlar harita üzerinde sarı ve kırmızı noktalarla gösterilir.

İstasyonun adını görmek için fareyi noktanın üzerinde gezdirin.

Sonrasında hava gözlem ve tahminlerini görmek için tıklayın.

Haritayı değiştirmek için: yaklaştırmak için siyah artı işaretli yeşil düğmeye ve uzaklaştırmak için de eksi işaretli düğmeye hızla tıklayın; bitişik haritalar için yeşil okları kullanın.


METAR-TAF: